Tekamah, Nebraska
Current Conditions -  °F | °C
As of 10:27 AM on Friday 19 Dec 2014 (Local Time) from KTQE Reporting Station
Haze Haze  
Wind Chill: 25°   Ceiling: 900
Heat Index: 33°   Visibility: 4mi
Dew Point: 30°   Wind: 10mph
Humidity: 89%   Direction: 170°S
Pressure: 30.23"   Gusts: NA
Location:  41.78°N, 96.22°W
Report Text: KTQE 191627Z AUTO 17009KT 4SM BR BKN009 OVC021 01/M01 A3023 RMK AO2 CIG 007V011 T00061011
Loading
Personal Weather Stations






























Interactive Weather Map New forecast layout! Learn more

10-Day Weather Forecast

Advertisements
Track Severe Weather on mobile